createdAt,value
2019-02-15T00:01:19.356Z,20.95
2019-02-15T00:02:36.522Z,20.20
2019-02-15T00:03:56.013Z,20.37
2019-02-15T00:05:12.362Z,18.57
2019-02-15T00:06:28.861Z,21.40
2019-02-15T00:07:45.426Z,19.52
2019-02-15T00:09:02.334Z,20.52
2019-02-15T00:10:20.786Z,20.48
2019-02-15T00:11:37.369Z,19.25
2019-02-15T00:12:54.612Z,20.32
2019-02-15T00:14:11.276Z,17.35
2019-02-15T00:15:27.870Z,18.73
2019-02-15T00:16:44.442Z,19.05
2019-02-15T00:18:19.945Z,19.35
2019-02-15T00:19:42.368Z,18.75
2019-02-15T00:21:18.141Z,18.75
2019-02-15T00:22:34.532Z,18.48
2019-02-15T00:23:52.321Z,19.32
2019-02-15T00:25:09.491Z,19.37
2019-02-15T00:26:26.064Z,19.00
2019-02-15T00:27:42.784Z,18.95
2019-02-15T00:28:59.309Z,20.27
2019-02-15T00:30:16.184Z,19.23
2019-02-15T00:31:32.573Z,19.00
2019-02-15T00:32:48.121Z,19.85
2019-02-15T00:34:12.436Z,19.52
2019-02-15T00:35:28.946Z,18.95
2019-02-15T00:36:45.373Z,20.00
2019-02-15T00:38:02.431Z,20.77
2019-02-15T00:39:18.857Z,20.72
2019-02-15T00:40:35.902Z,19.55
2019-02-15T00:41:51.194Z,20.27
2019-02-15T00:43:22.048Z,18.87
2019-02-15T00:44:39.166Z,20.20
2019-02-15T00:46:14.576Z,18.70
2019-02-15T00:47:50.226Z,19.17
2019-02-15T00:49:09.085Z,19.30
2019-02-15T00:50:44.366Z,19.57
2019-02-15T00:52:19.969Z,20.62
2019-02-15T00:53:56.153Z,19.00
2019-02-15T00:55:31.665Z,18.20
2019-02-15T00:57:07.795Z,18.87
2019-02-15T00:58:43.098Z,18.73
2019-02-15T01:00:16.161Z,19.02
2019-02-15T01:01:39.742Z,17.98
2019-02-15T01:03:05.062Z,18.15
2019-02-15T01:04:35.157Z,19.35
2019-02-15T01:06:13.558Z,17.45
2019-02-15T01:07:49.001Z,18.25
2019-02-15T01:09:32.136Z,19.30
2019-02-15T01:10:58.077Z,17.57
2019-02-15T01:12:43.337Z,19.57
2019-02-15T01:13:58.638Z,18.37
2019-02-15T01:15:15.312Z,19.60
2019-02-15T01:16:31.911Z,18.85
2019-02-15T01:17:49.161Z,18.50
2019-02-15T01:19:05.680Z,19.10
2019-02-15T01:20:22.465Z,19.20
2019-02-15T01:21:39.452Z,19.30
2019-02-15T01:22:56.076Z,18.40
2019-02-15T01:24:13.241Z,19.80
2019-02-15T01:25:35.398Z,19.85
2019-02-15T01:26:55.601Z,17.82
2019-02-15T01:28:23.954Z,19.37
2019-02-15T01:30:00.333Z,18.70
2019-02-15T01:31:38.821Z,20.50
2019-02-15T01:33:14.229Z,18.20
2019-02-15T01:34:42.514Z,20.82
2019-02-15T01:36:17.973Z,20.97
2019-02-15T01:37:49.939Z,19.07
2019-02-15T01:39:15.129Z,19.15
2019-02-15T01:40:50.394Z,19.48
2019-02-15T01:42:28.844Z,19.40
2019-02-15T01:44:04.306Z,19.85
2019-02-15T01:45:39.636Z,20.35
2019-02-15T01:47:04.929Z,21.15
2019-02-15T01:48:22.032Z,22.25
2019-02-15T01:49:38.982Z,22.15
2019-02-15T01:50:55.546Z,23.25
2019-02-15T01:52:12.632Z,20.97
2019-02-15T01:53:29.200Z,21.68
2019-02-15T01:54:46.595Z,21.55
2019-02-15T01:56:02.933Z,21.55
2019-02-15T01:57:19.384Z,21.45
2019-02-15T01:58:36.517Z,20.27
2019-02-15T01:59:52.958Z,19.75
2019-02-15T02:01:09.918Z,20.50
2019-02-15T02:02:28.384Z,21.07
2019-02-15T02:03:44.804Z,21.75
2019-02-15T02:05:01.315Z,21.77
2019-02-15T02:06:18.418Z,21.48
2019-02-15T02:07:36.019Z,20.08
2019-02-15T02:10:46.297Z,22.48
2019-02-15T02:12:02.934Z,21.80
2019-02-15T02:13:18.249Z,25.27
2019-02-15T02:14:42.586Z,21.97
2019-02-15T02:15:58.980Z,20.80
2019-02-15T02:17:15.629Z,22.73
2019-02-15T02:18:32.304Z,20.90
2019-02-15T02:19:49.161Z,22.67
2019-02-15T02:21:05.779Z,24.23
2019-02-15T02:22:22.572Z,21.95
2019-02-15T02:23:39.034Z,21.80
2019-02-15T02:24:55.495Z,22.73
2019-02-15T02:26:12.842Z,22.15
2019-02-15T02:27:29.725Z,21.97
2019-02-15T02:28:47.333Z,20.35
2019-02-15T02:30:05.846Z,21.82
2019-02-15T02:31:22.551Z,21.48
2019-02-15T02:32:39.214Z,22.45
2019-02-15T02:33:57.864Z,21.90
2019-02-15T02:35:14.217Z,20.70
2019-02-15T02:36:31.488Z,21.35
2019-02-15T02:37:48.013Z,21.65
2019-02-15T02:39:04.977Z,21.02
2019-02-15T02:40:22.835Z,21.70
2019-02-15T02:41:39.757Z,21.52
2019-02-15T02:42:56.966Z,21.90
2019-02-15T02:44:13.597Z,21.02
2019-02-15T02:45:30.386Z,21.37
2019-02-15T02:46:46.841Z,20.80
2019-02-15T02:48:03.397Z,21.70
2019-02-15T02:49:19.881Z,23.15
2019-02-15T02:50:36.433Z,22.62
2019-02-15T02:51:53.081Z,21.87
2019-02-15T02:53:09.561Z,22.10
2019-02-15T02:54:26.391Z,21.65
2019-02-15T02:55:42.814Z,21.68
2019-02-15T02:57:00.008Z,20.90
2019-02-15T02:58:16.585Z,20.97
2019-02-15T02:59:33.174Z,21.10
2019-02-15T03:00:49.705Z,20.77
2019-02-15T03:02:06.091Z,20.85
2019-02-15T03:03:23.161Z,22.20
2019-02-15T03:04:39.792Z,22.50
2019-02-15T03:05:56.068Z,23.32
2019-02-15T03:07:13.193Z,23.75
2019-02-15T03:08:29.728Z,23.60
2019-02-15T03:09:46.261Z,23.70
2019-02-15T03:11:02.822Z,25.40
2019-02-15T03:12:19.088Z,24.90
2019-02-15T03:13:35.735Z,17.98
2019-02-15T03:14:53.920Z,23.85
2019-02-15T03:16:10.350Z,22.13
2019-02-15T03:17:27.696Z,20.77
2019-02-15T03:18:44.963Z,22.48
2019-02-15T03:20:01.267Z,22.70
2019-02-15T03:21:19.329Z,22.60
2019-02-15T03:22:36.247Z,22.13
2019-02-15T03:23:52.873Z,23.27
2019-02-15T03:25:09.236Z,24.12
2019-02-15T03:26:25.710Z,23.32
2019-02-15T03:27:42.560Z,24.43
2019-02-15T03:28:59.583Z,23.00
2019-02-15T03:30:16.925Z,23.92
2019-02-15T03:31:34.125Z,24.02
2019-02-15T03:32:50.566Z,23.35
2019-02-15T03:34:07.133Z,23.92
2019-02-15T03:35:23.695Z,24.77
2019-02-15T03:36:58.999Z,24.75
2019-02-15T03:40:29.590Z,22.70
2019-02-15T03:41:45.973Z,23.35
2019-02-15T03:43:02.814Z,23.12
2019-02-15T03:44:22.355Z,22.85
2019-02-15T03:45:37.748Z,23.67
2019-02-15T03:46:54.365Z,22.40
2019-02-15T03:48:10.679Z,22.93
2019-02-15T03:49:27.161Z,22.93
2019-02-15T03:50:43.801Z,22.07
2019-02-15T03:52:01.028Z,22.77
2019-02-15T03:53:17.699Z,22.85
2019-02-15T03:54:34.182Z,23.27
2019-02-15T03:55:50.851Z,23.20
2019-02-15T03:57:07.762Z,25.10
2019-02-15T03:58:24.264Z,22.42
2019-02-15T03:59:41.495Z,24.37
2019-02-15T04:00:57.937Z,24.52
2019-02-15T04:02:15.194Z,24.52
2019-02-15T04:03:31.645Z,22.95
2019-02-15T04:04:48.065Z,24.40
2019-02-15T04:06:04.559Z,24.02
2019-02-15T04:07:21.005Z,23.27
2019-02-15T04:08:36.234Z,24.55
2019-02-15T04:10:00.492Z,24.85
2019-02-15T04:11:17.702Z,25.20
2019-02-15T04:12:34.181Z,25.05
2019-02-15T04:13:50.493Z,23.00
2019-02-15T04:15:07.131Z,23.80
2019-02-15T04:16:23.613Z,25.90
2019-02-15T04:17:39.954Z,23.90
2019-02-15T04:18:56.384Z,24.52
2019-02-15T04:20:12.749Z,25.30
2019-02-15T04:21:29.417Z,25.50
2019-02-15T04:22:46.678Z,26.30
2019-02-15T04:24:03.340Z,26.60
2019-02-15T04:25:19.781Z,26.65
2019-02-15T04:26:36.201Z,27.37
2019-02-15T04:27:52.617Z,25.35
2019-02-15T04:29:09.069Z,25.80
2019-02-15T04:30:24.453Z,25.70
2019-02-15T04:31:48.653Z,24.95
2019-02-15T04:33:05.613Z,24.57
2019-02-15T04:34:22.053Z,23.90
2019-02-15T04:35:37.316Z,23.27
2019-02-15T04:37:01.482Z,22.55
2019-02-15T04:38:18.147Z,22.35
2019-02-15T04:39:34.875Z,23.42
2019-02-15T04:40:50.107Z,22.85
2019-02-15T04:42:14.393Z,25.23
2019-02-15T04:43:31.658Z,23.98
2019-02-15T04:44:48.885Z,23.30
2019-02-15T04:46:05.258Z,24.75
2019-02-15T04:47:22.574Z,24.18
2019-02-15T04:48:38.957Z,25.05
2019-02-15T04:49:56.157Z,26.02
2019-02-15T04:51:12.666Z,25.88
2019-02-15T04:52:27.919Z,26.52
2019-02-15T04:53:52.113Z,25.25
2019-02-15T04:55:09.050Z,27.00
2019-02-15T04:56:25.457Z,24.82
2019-02-15T04:57:42.060Z,26.90
2019-02-15T04:58:58.400Z,25.77
2019-02-15T05:00:15.699Z,25.57
2019-02-15T05:01:32.207Z,25.77
2019-02-15T05:02:48.999Z,24.85
2019-02-15T05:04:06.618Z,24.80
2019-02-15T05:05:23.308Z,23.60
2019-02-15T05:06:40.621Z,25.00
2019-02-15T05:07:57.650Z,24.98
2019-02-15T05:09:14.810Z,25.10
2019-02-15T05:10:32.025Z,24.15
2019-02-15T05:11:49.394Z,24.32
2019-02-15T05:13:05.949Z,25.62
2019-02-15T05:14:24.519Z,25.72
2019-02-15T05:15:41.164Z,24.85
2019-02-15T05:16:58.330Z,25.30
2019-02-15T05:18:15.041Z,27.22
2019-02-15T05:19:32.107Z,26.60
2019-02-15T05:20:48.498Z,28.42
2019-02-15T05:22:05.542Z,27.50
2019-02-15T05:23:22.063Z,27.25
2019-02-15T05:24:38.420Z,26.23
2019-02-15T05:25:54.926Z,27.98
2019-02-15T05:27:11.282Z,25.12
2019-02-15T05:28:27.705Z,25.15
2019-02-15T05:29:44.347Z,26.85
2019-02-15T05:31:03.853Z,26.73
2019-02-15T05:32:20.614Z,25.72
2019-02-15T05:33:37.112Z,26.57
2019-02-15T05:34:54.370Z,25.32
2019-02-15T05:36:10.905Z,26.25
2019-02-15T05:37:28.138Z,25.05
2019-02-15T05:38:44.709Z,25.05
2019-02-15T05:40:01.144Z,25.75
2019-02-15T05:41:17.537Z,25.00
2019-02-15T05:42:34.177Z,24.12
2019-02-15T05:43:39.210Z,25.52
2019-02-15T05:45:04.526Z,23.67
2019-02-15T05:46:41.437Z,24.00
2019-02-15T05:47:58.056Z,23.30
2019-02-15T05:49:14.729Z,23.45
2019-02-15T05:50:31.001Z,22.05
2019-02-15T05:51:47.682Z,22.27
2019-02-15T05:53:04.993Z,22.05
2019-02-15T05:54:20.280Z,22.35
2019-02-15T05:55:44.398Z,22.50
2019-02-15T05:57:00.740Z,21.80
2019-02-15T05:58:16.973Z,21.60
2019-02-15T05:59:34.070Z,22.42
2019-02-15T06:00:51.221Z,20.80
2019-02-15T06:02:07.788Z,22.17
2019-02-15T06:03:25.054Z,22.95
2019-02-15T06:04:41.657Z,22.22
2019-02-15T06:05:56.901Z,21.17
2019-02-15T06:07:13.318Z,21.75
2019-02-15T06:08:31.358Z,22.40
2019-02-15T06:09:49.082Z,23.45
2019-02-15T06:11:07.824Z,24.87
2019-02-15T06:12:24.058Z,24.40
2019-02-15T06:13:39.317Z,23.45
2019-02-15T06:15:14.448Z,24.80
2019-02-15T06:16:27.806Z,24.05
2019-02-15T06:17:44.298Z,23.85
2019-02-15T06:19:00.882Z,23.95
2019-02-15T06:20:17.172Z,24.57
2019-02-15T06:21:34.012Z,25.57
2019-02-15T06:22:50.504Z,27.35
2019-02-15T06:24:07.836Z,30.65
2019-02-15T06:25:25.218Z,35.73
2019-02-15T06:26:42.130Z,24.50
2019-02-15T06:27:58.669Z,24.45
2019-02-15T06:29:15.941Z,23.00
2019-02-15T06:30:32.529Z,23.05
2019-02-15T06:31:49.758Z,22.77
2019-02-15T06:33:06.728Z,24.05
2019-02-15T06:34:23.189Z,23.52
2019-02-15T06:35:39.562Z,22.48
2019-02-15T06:36:56.773Z,22.65
2019-02-15T06:38:13.281Z,22.27
2019-02-15T06:39:30.064Z,24.27
2019-02-15T06:40:47.304Z,22.95
2019-02-15T06:42:04.536Z,22.32
2019-02-15T06:43:20.844Z,20.72
2019-02-15T06:44:36.118Z,20.75
2019-02-15T06:46:00.282Z,20.82
2019-02-15T06:47:16.773Z,20.75
2019-02-15T06:48:33.789Z,20.32
2019-02-15T06:49:50.165Z,18.70
2019-02-15T06:51:08.096Z,20.43
2019-02-15T06:52:24.645Z,17.90
2019-02-15T06:53:41.978Z,17.37
2019-02-15T06:54:58.441Z,16.20
2019-02-15T06:56:15.357Z,16.48
2019-02-15T06:57:32.291Z,16.95
2019-02-15T07:00:45.817Z,16.37
2019-02-15T07:05:59.498Z,15.28
2019-02-15T07:07:15.893Z,14.55
2019-02-15T07:08:31.160Z,15.95
2019-02-15T07:09:55.549Z,13.53
2019-02-15T07:11:11.921Z,13.25
2019-02-15T07:12:28.393Z,13.40
2019-02-15T07:13:45.568Z,13.30
2019-02-15T07:15:02.033Z,15.35
2019-02-15T07:16:22.422Z,13.75
2019-02-15T07:17:46.557Z,14.05
2019-02-15T07:19:03.013Z,13.10
2019-02-15T07:20:19.460Z,12.18
2019-02-15T07:21:36.480Z,12.33
2019-02-15T07:22:53.030Z,12.50
2019-02-15T07:24:09.449Z,13.13
2019-02-15T07:25:26.012Z,12.80
2019-02-15T07:26:42.636Z,13.28
2019-02-15T07:28:02.584Z,13.83
2019-02-15T07:29:19.907Z,13.60
2019-02-15T07:30:36.561Z,13.65
2019-02-15T07:31:52.945Z,13.78
2019-02-15T07:33:09.617Z,13.50
2019-02-15T07:34:26.712Z,13.40
2019-02-15T07:35:43.091Z,14.20
2019-02-15T07:37:00.088Z,14.73
2019-02-15T07:38:17.072Z,12.73
2019-02-15T07:39:33.841Z,13.10
2019-02-15T07:40:51.030Z,13.28
2019-02-15T07:42:07.540Z,15.10
2019-02-15T07:43:24.559Z,14.33
2019-02-15T07:44:41.044Z,14.87
2019-02-15T07:45:57.523Z,13.20
2019-02-15T07:47:14.027Z,13.55
2019-02-15T07:48:31.203Z,14.45
2019-02-15T07:49:48.113Z,14.53
2019-02-15T07:51:09.727Z,13.90
2019-02-15T07:52:22.528Z,12.35
2019-02-15T07:53:39.171Z,13.55
2019-02-15T07:54:55.525Z,13.28
2019-02-15T07:56:11.914Z,13.78
2019-02-15T07:57:28.266Z,13.13
2019-02-15T07:58:44.878Z,14.18
2019-02-15T08:00:00.728Z,13.53
2019-02-15T08:01:25.613Z,15.30
2019-02-15T08:02:42.164Z,13.48
2019-02-15T08:04:00.285Z,14.30
2019-02-15T08:05:17.438Z,16.55
2019-02-15T08:06:34.013Z,14.23
2019-02-15T08:07:50.405Z,15.72
2019-02-15T08:09:06.941Z,15.48
2019-02-15T08:10:23.504Z,14.68
2019-02-15T08:11:40.090Z,14.23
2019-02-15T08:12:56.536Z,14.38
2019-02-15T08:14:17.535Z,14.85
2019-02-15T08:15:36.393Z,12.90
2019-02-15T08:16:54.287Z,15.65
2019-02-15T08:18:10.825Z,14.50
2019-02-15T08:19:27.695Z,13.75
2019-02-15T08:20:44.608Z,14.13
2019-02-15T08:22:01.807Z,14.63
2019-02-15T08:23:18.499Z,14.93
2019-02-15T08:24:36.791Z,15.10
2019-02-15T08:25:53.292Z,15.83
2019-02-15T08:27:09.643Z,15.43
2019-02-15T08:28:26.896Z,14.13
2019-02-15T08:29:43.945Z,14.75
2019-02-15T08:31:00.437Z,13.98
2019-02-15T08:32:18.377Z,15.23
2019-02-15T08:33:34.921Z,13.15
2019-02-15T08:34:51.248Z,14.65
2019-02-15T08:36:07.766Z,14.78
2019-02-15T08:37:24.220Z,13.72
2019-02-15T08:38:40.514Z,14.73
2019-02-15T08:39:57.056Z,13.25
2019-02-15T08:41:13.576Z,14.13
2019-02-15T08:42:30.761Z,13.65
2019-02-15T08:43:47.777Z,14.00
2019-02-15T08:45:04.059Z,14.13
2019-02-15T08:46:21.370Z,14.73
2019-02-15T08:47:39.773Z,12.95
2019-02-15T08:48:57.188Z,14.18
2019-02-15T08:50:13.835Z,12.98
2019-02-15T08:51:30.321Z,14.07
2019-02-15T08:52:47.321Z,13.78
2019-02-15T08:54:04.496Z,13.75
2019-02-15T08:55:21.396Z,14.38
2019-02-15T08:56:37.818Z,14.65
2019-02-15T08:57:55.648Z,15.20
2019-02-15T08:59:12.096Z,13.55
2019-02-15T09:00:28.607Z,15.43
2019-02-15T09:01:47.689Z,14.43
2019-02-15T09:03:04.153Z,13.72
2019-02-15T09:04:21.187Z,13.03
2019-02-15T09:05:40.296Z,13.68
2019-02-15T09:06:56.791Z,13.72
2019-02-15T09:08:13.876Z,13.48
2019-02-15T09:09:30.091Z,12.30
2019-02-15T09:10:46.443Z,13.53
2019-02-15T09:12:03.632Z,12.90
2019-02-15T09:13:20.098Z,13.20
2019-02-15T09:14:35.358Z,14.13
2019-02-15T09:15:59.529Z,14.90
2019-02-15T09:17:23.657Z,13.65
2019-02-15T09:18:40.320Z,13.48
2019-02-15T09:19:56.785Z,13.48
2019-02-15T09:21:13.232Z,13.32
2019-02-15T09:22:29.601Z,13.30
2019-02-15T09:23:46.860Z,13.78
2019-02-15T09:25:03.355Z,14.03
2019-02-15T09:26:20.237Z,13.78
2019-02-15T09:29:42.778Z,11.85
2019-02-15T09:30:59.386Z,11.93
2019-02-15T09:32:15.756Z,11.88
2019-02-15T09:33:32.341Z,12.78
2019-02-15T09:34:49.464Z,13.50
2019-02-15T09:36:06.548Z,12.88
2019-02-15T09:37:22.873Z,11.75
2019-02-15T09:38:39.387Z,11.95
2019-02-15T09:39:56.117Z,12.15
2019-02-15T09:41:12.805Z,12.93
2019-02-15T09:42:29.721Z,12.18
2019-02-15T09:43:46.309Z,11.48
2019-02-15T09:45:03.624Z,12.85
2019-02-15T09:46:20.436Z,12.23
2019-02-15T09:49:21.746Z,12.70
2019-02-15T09:50:38.668Z,12.55
2019-02-15T09:51:55.617Z,12.55
2019-02-15T09:53:12.332Z,12.43
2019-02-15T09:54:28.804Z,12.53
2019-02-15T09:55:45.532Z,11.78
2019-02-15T09:57:02.154Z,12.53
2019-02-15T09:58:18.689Z,11.28
2019-02-15T09:59:35.598Z,11.97
2019-02-15T10:00:52.277Z,12.07
2019-02-15T10:02:10.552Z,11.85
2019-02-15T10:03:27.452Z,12.33
2019-02-15T10:04:43.877Z,13.28
2019-02-15T10:06:00.440Z,12.07
2019-02-15T10:07:17.168Z,10.70
2019-02-15T10:08:35.994Z,11.35
2019-02-15T10:09:53.117Z,10.82
2019-02-15T10:11:09.793Z,12.03
2019-02-15T10:12:26.406Z,11.10
2019-02-15T10:13:43.049Z,12.28
2019-02-15T10:14:59.893Z,13.03
2019-02-15T10:16:17.158Z,11.28
2019-02-15T10:17:32.537Z,11.88
2019-02-15T10:18:56.819Z,12.45
2019-02-15T10:20:13.157Z,12.10
2019-02-15T10:21:30.459Z,11.05
2019-02-15T10:22:47.309Z,14.05
2019-02-15T10:24:03.757Z,12.15
2019-02-15T10:25:20.748Z,12.03
2019-02-15T10:26:38.864Z,11.33
2019-02-15T10:27:55.308Z,12.20
2019-02-15T10:29:11.964Z,11.48
2019-02-15T10:30:28.284Z,10.80
2019-02-15T10:31:44.950Z,10.90
2019-02-15T10:33:02.224Z,11.53
2019-02-15T10:34:18.901Z,12.25
2019-02-15T10:35:36.035Z,11.10
2019-02-15T10:36:52.649Z,10.70
2019-02-15T10:38:09.184Z,9.75
2019-02-15T10:39:25.530Z,9.78
2019-02-15T10:40:42.191Z,10.30
2019-02-15T10:41:58.708Z,9.25
2019-02-15T10:43:15.017Z,10.55
2019-02-15T10:44:32.410Z,10.85
2019-02-15T10:45:48.805Z,10.25
2019-02-15T10:47:13.646Z,11.75
2019-02-15T10:48:23.962Z,10.93
2019-02-15T10:49:40.453Z,10.40
2019-02-15T10:50:57.077Z,10.55
2019-02-15T10:52:14.189Z,9.93
2019-02-15T10:53:30.720Z,9.88
2019-02-15T10:54:47.214Z,9.65
2019-02-15T10:56:03.633Z,9.48
2019-02-15T10:57:20.049Z,10.28
2019-02-15T10:58:39.489Z,10.50
2019-02-15T10:59:55.896Z,9.65
2019-02-15T11:01:12.931Z,9.93
2019-02-15T11:02:29.598Z,8.98
2019-02-15T11:03:47.109Z,9.20
2019-02-15T11:05:04.213Z,8.95
2019-02-15T11:06:20.770Z,8.85
2019-02-15T11:07:37.597Z,9.43
2019-02-15T11:08:54.075Z,9.53
2019-02-15T11:10:11.385Z,8.70
2019-02-15T11:11:28.548Z,8.50
2019-02-15T11:12:45.070Z,8.45
2019-02-15T11:14:01.513Z,7.65
2019-02-15T11:15:18.108Z,8.30
2019-02-15T11:16:35.342Z,8.40
2019-02-15T11:17:51.900Z,8.13
2019-02-15T11:19:08.805Z,8.25
2019-02-15T11:20:25.921Z,8.03
2019-02-15T11:21:42.499Z,6.97
2019-02-15T11:22:59.051Z,7.40
2019-02-15T11:24:16.094Z,7.97
2019-02-15T11:25:33.321Z,7.33
2019-02-15T11:26:50.415Z,6.97
2019-02-15T11:28:06.951Z,6.70
2019-02-15T11:29:23.697Z,6.95
2019-02-15T11:30:28.741Z,8.23
2019-02-15T11:31:33.881Z,8.70
2019-02-15T11:32:50.253Z,7.90
2019-02-15T11:34:06.863Z,7.75
2019-02-15T11:35:23.275Z,7.90
2019-02-15T11:36:40.482Z,8.23
2019-02-15T11:37:57.298Z,7.78
2019-02-15T11:39:13.860Z,7.70
2019-02-15T11:40:30.667Z,7.60
2019-02-15T11:41:46.980Z,7.92
2019-02-15T11:43:03.674Z,7.40
2019-02-15T11:44:20.277Z,7.55
2019-02-15T11:45:36.832Z,7.50
2019-02-15T11:46:56.707Z,7.58
2019-02-15T11:48:12.772Z,7.58
2019-02-15T11:49:29.964Z,7.12
2019-02-15T11:50:46.588Z,6.75
2019-02-15T11:52:03.711Z,6.70
2019-02-15T11:53:20.362Z,7.12
2019-02-15T11:54:35.639Z,7.80
2019-02-15T11:55:59.750Z,6.62
2019-02-15T11:57:14.858Z,7.60
2019-02-15T11:58:38.964Z,7.20
2019-02-15T11:59:55.211Z,7.80
2019-02-15T12:01:11.623Z,6.40
2019-02-15T12:02:28.600Z,7.55
2019-02-15T12:03:45.152Z,6.90
2019-02-15T12:05:01.586Z,6.40
2019-02-15T12:06:18.713Z,5.45
2019-02-15T12:07:35.257Z,5.87
2019-02-15T12:08:51.581Z,6.42
2019-02-15T12:10:08.448Z,5.75
2019-02-15T12:11:25.144Z,5.45
2019-02-15T12:12:42.261Z,5.60
2019-02-15T12:13:58.962Z,6.00
2019-02-15T12:15:16.225Z,5.72
2019-02-15T12:16:33.365Z,4.83
2019-02-15T12:17:49.800Z,4.50
2019-02-15T12:19:06.317Z,4.45
2019-02-15T12:20:22.683Z,5.00
2019-02-15T12:21:40.017Z,4.40
2019-02-15T12:22:56.988Z,4.53
2019-02-15T12:24:13.325Z,5.08
2019-02-15T12:25:28.515Z,4.60
2019-02-15T12:26:52.622Z,4.62
2019-02-15T12:28:08.890Z,5.67
2019-02-15T12:29:25.401Z,5.33
2019-02-15T12:30:41.766Z,5.20
2019-02-15T12:31:58.368Z,5.28
2019-02-15T12:33:15.520Z,4.72
2019-02-15T12:34:32.247Z,5.03
2019-02-15T12:35:48.785Z,5.40
2019-02-15T12:37:05.480Z,5.80
2019-02-15T12:38:22.614Z,4.83
2019-02-15T12:39:39.860Z,5.00
2019-02-15T12:40:58.166Z,5.25
2019-02-15T12:42:15.280Z,5.25
2019-02-15T12:43:30.445Z,4.42
2019-02-15T12:44:54.538Z,5.25
2019-02-15T12:46:11.282Z,4.78
2019-02-15T12:47:27.773Z,5.55
2019-02-15T12:48:46.460Z,4.50
2019-02-15T12:50:02.834Z,4.87
2019-02-15T12:51:19.422Z,4.53
2019-02-15T12:52:36.002Z,5.03
2019-02-15T12:53:53.173Z,4.75
2019-02-15T12:55:09.661Z,4.78
2019-02-15T12:56:26.211Z,4.42
2019-02-15T12:57:41.468Z,4.37
2019-02-15T12:59:05.669Z,5.25
2019-02-15T13:00:21.989Z,5.17
2019-02-15T13:01:38.478Z,4.42
2019-02-15T13:02:55.148Z,4.87
2019-02-15T13:04:11.776Z,3.70
2019-02-15T13:05:28.238Z,4.00
2019-02-15T13:06:44.660Z,4.37
2019-02-15T13:08:01.497Z,4.45
2019-02-15T13:09:18.071Z,3.90
2019-02-15T13:10:35.667Z,3.52
2019-02-15T13:11:52.477Z,4.35
2019-02-15T13:13:08.930Z,4.70
2019-02-15T13:14:24.209Z,3.95
2019-02-15T13:15:48.653Z,3.62
2019-02-15T13:17:05.446Z,3.52
2019-02-15T13:18:22.668Z,3.90
2019-02-15T13:19:39.989Z,3.60
2019-02-15T13:20:56.416Z,3.50
2019-02-15T13:22:13.917Z,3.65
2019-02-15T13:23:31.150Z,3.90
2019-02-15T13:24:47.567Z,3.65
2019-02-15T13:26:08.479Z,3.95
2019-02-15T13:27:22.928Z,3.60
2019-02-15T13:28:39.562Z,3.85
2019-02-15T13:29:56.093Z,3.62
2019-02-15T13:31:13.223Z,3.40
2019-02-15T13:32:29.687Z,3.05
2019-02-15T13:33:46.233Z,3.10
2019-02-15T13:35:02.813Z,3.02
2019-02-15T13:36:19.772Z,3.02
2019-02-15T13:37:37.951Z,3.02
2019-02-15T13:38:54.478Z,3.35
2019-02-15T13:40:10.881Z,3.05
2019-02-15T13:41:27.153Z,3.40
2019-02-15T13:42:43.765Z,3.22
2019-02-15T13:43:58.986Z,3.42
2019-02-15T13:45:23.122Z,3.12
2019-02-15T13:46:39.497Z,3.10
2019-02-15T13:47:56.110Z,3.47
2019-02-15T13:49:13.083Z,3.22
2019-02-15T13:50:29.709Z,3.08
2019-02-15T13:51:46.269Z,2.70
2019-02-15T13:53:03.451Z,2.75
2019-02-15T13:54:20.083Z,3.00
2019-02-15T13:55:37.354Z,3.10
2019-02-15T13:56:54.265Z,3.40
2019-02-15T13:58:11.632Z,2.85
2019-02-15T13:59:28.040Z,3.30
2019-02-15T14:00:44.388Z,3.12
2019-02-15T14:02:01.585Z,3.35
2019-02-15T14:03:18.044Z,3.10
2019-02-15T14:04:34.427Z,3.02
2019-02-15T14:05:50.849Z,3.20
2019-02-15T14:07:07.702Z,3.37
2019-02-15T14:08:24.324Z,4.05
2019-02-15T14:09:40.687Z,3.33
2019-02-15T14:10:57.191Z,4.50
2019-02-15T14:12:03.054Z,4.75
2019-02-15T14:13:08.382Z,5.15
2019-02-15T14:14:13.494Z,5.00
2019-02-15T14:15:18.633Z,5.58
2019-02-15T14:16:23.745Z,5.22
2019-02-15T14:17:28.869Z,4.03
2019-02-15T14:18:34.023Z,4.72
2019-02-15T14:19:39.147Z,3.80
2019-02-15T14:20:44.316Z,4.78
2019-02-15T14:21:49.460Z,4.22
2019-02-15T14:22:54.626Z,3.98
2019-02-15T14:24:00.906Z,4.40
2019-02-15T14:25:06.561Z,4.35
2019-02-15T14:26:11.643Z,3.85
2019-02-15T14:27:16.898Z,4.65
2019-02-15T14:28:22.331Z,4.58
2019-02-15T14:29:27.817Z,4.47
2019-02-15T14:30:32.939Z,4.03
2019-02-15T14:31:38.068Z,4.10
2019-02-15T14:32:43.140Z,4.25
2019-02-15T14:33:48.488Z,4.85
2019-02-15T14:34:55.242Z,4.70
2019-02-15T14:36:00.405Z,4.78
2019-02-15T14:37:05.572Z,3.05
2019-02-15T14:38:10.824Z,2.55
2019-02-15T14:39:15.973Z,3.55
2019-02-15T14:40:21.033Z,1.80
2019-02-15T14:41:26.084Z,1.40
2019-02-15T14:42:31.247Z,1.27
2019-02-15T14:43:36.388Z,1.42
2019-02-15T14:44:42.581Z,1.10
2019-02-15T14:45:47.710Z,1.00
2019-02-15T14:46:52.774Z,1.30
2019-02-15T14:47:58.017Z,1.15
2019-02-15T14:49:03.188Z,1.20
2019-02-15T14:50:08.326Z,1.30
2019-02-15T14:51:13.488Z,1.17
2019-02-15T14:52:18.607Z,1.10
2019-02-15T14:53:24.735Z,1.37
2019-02-15T14:54:29.892Z,1.40
2019-02-15T14:55:35.018Z,0.90
2019-02-15T14:56:42.491Z,1.35
2019-02-15T14:57:47.614Z,1.30
2019-02-15T14:58:52.741Z,1.20
2019-02-15T14:59:57.914Z,1.10
2019-02-15T15:01:03.464Z,1.42
2019-02-15T15:02:09.579Z,1.12
2019-02-15T15:03:14.785Z,1.42
2019-02-15T15:04:21.708Z,1.65
2019-02-15T15:05:26.934Z,1.20
2019-02-15T15:06:32.060Z,1.50
2019-02-15T15:07:37.238Z,1.45
2019-02-15T15:08:42.439Z,1.37
2019-02-15T15:09:47.508Z,1.90
2019-02-15T15:10:52.644Z,1.10
2019-02-15T15:11:57.850Z,1.60
2019-02-15T15:13:02.993Z,1.50
2019-02-15T15:14:08.258Z,1.57
2019-02-15T15:15:13.371Z,1.70
2019-02-15T15:16:19.325Z,1.35
2019-02-15T15:17:24.409Z,1.35
2019-02-15T15:18:29.547Z,1.62
2019-02-15T15:19:34.894Z,1.65
2019-02-15T15:20:40.025Z,1.60
2019-02-15T15:21:45.254Z,1.70
2019-02-15T15:22:50.378Z,1.60
2019-02-15T15:23:56.548Z,1.40
2019-02-15T15:25:01.582Z,1.75
2019-02-15T15:26:11.773Z,1.55
2019-02-15T15:27:13.561Z,1.80
2019-02-15T15:28:18.768Z,1.70
2019-02-15T15:29:23.942Z,1.72
2019-02-15T15:30:29.142Z,1.75
2019-02-15T15:31:34.297Z,1.60
2019-02-15T15:32:39.402Z,1.35
2019-02-15T15:33:44.582Z,1.70
2019-02-15T15:34:49.702Z,1.90
2019-02-15T15:35:54.856Z,1.40
2019-02-15T15:36:59.979Z,2.00
2019-02-15T15:38:06.466Z,1.65
2019-02-15T15:39:11.613Z,1.65
2019-02-15T15:40:16.693Z,1.60
2019-02-15T15:41:21.910Z,1.80
2019-02-15T15:42:27.118Z,1.80
2019-02-15T15:43:32.433Z,2.30
2019-02-15T15:44:37.670Z,1.70
2019-02-15T15:45:42.794Z,1.90
2019-02-15T15:46:47.928Z,1.80
2019-02-15T15:47:53.101Z,2.20
2019-02-15T15:48:58.229Z,1.80
2019-02-15T15:50:03.645Z,2.27
2019-02-15T15:51:08.734Z,1.90
2019-02-15T15:52:13.997Z,2.10
2019-02-15T15:53:19.112Z,1.98
2019-02-15T15:54:24.416Z,2.47
2019-02-15T15:55:29.681Z,2.37
2019-02-15T15:56:34.775Z,2.62
2019-02-15T15:57:40.015Z,2.60
2019-02-15T15:58:45.301Z,2.60
2019-02-15T15:59:51.751Z,2.60
2019-02-15T16:00:57.100Z,2.60
2019-02-15T16:02:02.495Z,2.27
2019-02-15T16:03:07.736Z,3.08
2019-02-15T16:04:12.789Z,2.33
2019-02-15T16:05:17.940Z,2.20
2019-02-15T16:06:24.693Z,3.05
2019-02-15T16:07:30.209Z,2.92
2019-02-15T16:08:35.375Z,2.70
2019-02-15T16:09:40.534Z,3.27
2019-02-15T16:10:45.563Z,2.42
2019-02-15T16:11:50.911Z,2.20
2019-02-15T16:12:56.074Z,2.77
2019-02-15T16:14:01.195Z,3.20
2019-02-15T16:15:07.094Z,2.98
2019-02-15T16:16:12.265Z,2.77
2019-02-15T16:17:17.575Z,2.80
2019-02-15T16:18:32.030Z,3.10
2019-02-15T16:19:29.584Z,3.00
2019-02-15T16:20:37.877Z,2.87
2019-02-15T16:21:44.502Z,3.25
2019-02-15T16:22:50.233Z,2.83
2019-02-15T16:23:55.387Z,2.90
2019-02-15T16:25:00.542Z,2.40
2019-02-15T16:26:05.714Z,2.72
2019-02-15T16:27:10.811Z,3.10
2019-02-15T16:28:17.017Z,2.90
2019-02-15T16:29:22.166Z,3.22
2019-02-15T16:30:30.067Z,2.75
2019-02-15T16:31:35.248Z,3.37
2019-02-15T16:32:40.371Z,3.55
2019-02-15T16:33:45.519Z,3.00
2019-02-15T16:34:50.660Z,3.15
2019-02-15T16:35:55.829Z,3.12
2019-02-15T16:37:00.936Z,2.90
2019-02-15T16:38:06.107Z,3.10
2019-02-15T16:39:11.327Z,2.70
2019-02-15T16:40:16.520Z,2.92
2019-02-15T16:41:21.696Z,2.62
2019-02-15T16:42:26.869Z,3.02